Time;durP1;ratioP1;P1;durP2;ratioP2;P2;SDS_P1;SDS_P2;PMS_P1;PMS_P2;Temp;Humidity;BMP_temperature;BMP_pressure;BME280_temperature;BME280_humidity;BME280_pressure;Samples;Min_cycle;Max_cycle;Signal;HPM_P1;HPM_P2
2022/05/03 00:01:58;;;;;;;1.38;0.70;;;23.20;39.70;;;;;;4986126;28;20293;-43
2022/05/03 00:04:28;;;;;;;2.00;0.93;;;23.20;39.80;;;;;;4985976;28;20034;-42
2022/05/03 00:07:03;;;;;;;1.67;0.90;;;23.20;39.80;;;;;;4986327;28;20045;-42
2022/05/03 00:10:00;;;;;;;1.35;0.77;;;23.20;39.80;;;;;;4986508;28;20492;-42
2022/05/03 00:12:44;;;;;;;1.50;0.80;;;23.20;39.80;;;;;;4983150;28;20053;-42
2022/05/03 00:15:11;;;;;;;1.85;1.00;;;23.20;39.80;;;;;;4986267;28;20552;-42
2022/05/03 00:17:38;;;;;;;1.38;0.88;;;23.20;39.80;;;;;;4986187;28;20419;-43
2022/05/03 00:20:04;;;;;;;1.13;0.70;;;23.20;39.80;;;;;;4986427;28;20092;-42
2022/05/03 00:22:32;;;;;;;2.42;1.17;;;23.20;39.80;;;;;;4986297;28;20029;-42
2022/05/03 00:24:58;;;;;;;1.58;0.80;;;23.20;39.80;;;;;;5000597;28;20023;-42
2022/05/03 00:27:26;;;;;;;1.70;0.90;;;23.10;39.80;;;;;;4986036;28;20030;-41
2022/05/03 00:29:53;;;;;;;1.95;0.80;;;23.10;39.80;;;;;;4985628;28;20430;-42
2022/05/03 00:32:21;;;;;;;1.52;0.82;;;23.10;39.80;;;;;;4985549;28;20081;-42
2022/05/03 00:34:48;;;;;;;1.42;0.95;;;23.10;39.80;;;;;;4985227;28;20054;-42
2022/05/03 00:37:14;;;;;;;1.63;0.90;;;23.10;39.80;;;;;;4986070;28;20026;-42
2022/05/03 00:39:40;;;;;;;1.48;0.80;;;23.10;39.80;;;;;;4985896;28;20100;-42
2022/05/03 00:42:17;;;;;;;1.38;0.90;;;23.10;39.80;;;;;;4985373;28;20674;-42
2022/05/03 00:45:03;;;;;;;1.83;0.98;;;23.10;39.90;;;;;;4985804;28;20033;-42
2022/05/03 00:47:50;;;;;;;1.88;0.90;;;23.10;39.90;;;;;;4985686;28;20118;-42
2022/05/03 00:50:25;;;;;;;1.63;0.90;;;23.10;39.90;;;;;;4985793;28;20606;-42
2022/05/03 00:53:13;;;;;;;1.85;0.95;;;23.10;39.80;;;;;;4985515;28;20030;-42
2022/05/03 00:55:50;;;;;;;1.48;0.90;;;23.10;39.90;;;;;;4985349;28;20038;-43
2022/05/03 00:58:32;;;;;;;1.52;0.80;;;23.10;39.90;;;;;;4984448;28;20064;-42
2022/05/03 01:01:03;;;;;;;1.70;0.90;;;23.10;39.90;;;;;;4984144;28;20681;-42
2022/05/03 01:04:01;;;;;;;1.65;0.80;;;23.10;39.90;;;;;;4984215;28;20605;-44
2022/05/03 01:06:33;;;;;;;1.60;0.90;;;23.10;39.90;;;;;;4985640;28;20030;-44
2022/05/03 01:09:06;;;;;;;1.27;0.80;;;23.10;39.90;;;;;;4985461;28;20134;-43
2022/05/03 01:11:31;;;;;;;2.50;0.82;;;23.10;39.90;;;;;;4984481;28;20446;-43
2022/05/03 01:14:29;;;;;;;1.45;0.60;;;23.00;39.90;;;;;;4985659;28;20043;-44
2022/05/03 01:16:58;;;;;;;1.90;0.95;;;23.10;39.90;;;;;;4985663;28;20054;-44
2022/05/03 01:19:49;;;;;;;2.28;0.90;;;23.10;39.80;;;;;;4985343;28;20391;-44
2022/05/03 01:22:29;;;;;;;1.55;1.00;;;23.10;39.90;;;;;;4985221;28;20026;-43
2022/05/03 01:25:33;;;;;;;1.30;0.70;;;23.10;39.90;;;;;;4985195;28;20035;-44
2022/05/03 01:28:08;;;;;;;1.80;0.90;;;23.00;39.80;;;;;;4985224;28;20446;-45
2022/05/03 01:30:36;;;;;;;1.73;1.00;;;23.00;39.80;;;;;;4985248;28;20027;-44
2022/05/03 01:33:08;;;;;;;1.85;0.95;;;23.00;40.50;;;;;;4985230;28;20053;-44
2022/05/03 01:35:37;;;;;;;1.25;0.77;;;23.00;39.80;;;;;;4984654;28;20033;-44
2022/05/03 01:38:20;;;;;;;1.33;0.80;;;23.00;39.80;;;;;;4985456;28;20022;-43
2022/05/03 01:41:04;;;;;;;1.48;0.80;;;23.00;39.90;;;;;;4984755;28;20109;-42
2022/05/03 01:44:16;;;;;;;1.75;0.90;;;23.00;39.90;;;;;;4985830;28;20097;-43
2022/05/03 01:46:42;;;;;;;1.05;0.65;;;23.00;39.90;;;;;;4931177;28;20494;-42
2022/05/03 01:52:42;;;;;;;1.17;0.70;;;23.00;39.90;;;;;;4984508;28;20049;-42
2022/05/03 01:55:26;;;;;;;;;;;23.00;39.90;;;;;;4985977;28;20031;-42
2022/05/03 01:58:10;;;;;;;;;;;23.00;39.90;;;;;;4985661;28;19976;-42
2022/05/03 02:00:36;;;;;;;1.27;0.60;;;23.00;39.90;;;;;;4984609;28;19916;-43
2022/05/03 02:03:12;;;;;;;1.75;0.88;;;23.00;39.90;;;;;;4985014;28;20045;-42
2022/05/03 02:05:51;;;;;;;1.98;1.13;;;23.00;39.90;;;;;;4984459;28;20038;-43
2022/05/03 02:08:28;;;;;;;1.83;1.00;;;23.00;39.90;;;;;;4985514;28;20398;-42
2022/05/03 02:10:58;;;;;;;2.10;0.90;;;23.00;39.90;;;;;;4987013;28;20015;-42
2022/05/03 02:16:53;;;;;;;1.45;0.80;;;23.00;39.90;;;;;;4988599;28;20132;-43
2022/05/03 02:19:24;;;;;;;1.63;0.90;;;23.00;39.90;;;;;;4988296;28;20108;-42
2022/05/03 02:22:24;;;;;;;1.58;0.70;;;23.00;40.00;;;;;;4988016;28;20541;-42
2022/05/03 02:25:08;;;;;;;2.15;0.73;;;23.00;40.00;;;;;;4979530;28;20100;-42
2022/05/03 02:27:38;;;;;;;1.35;0.85;;;23.00;40.00;;;;;;4987698;28;20081;-42
2022/05/03 02:30:06;;;;;;;1.63;0.77;;;23.00;40.00;;;;;;4988118;28;20089;-42
2022/05/03 02:33:01;;;;;;;1.35;0.75;;;22.90;40.00;;;;;;4987647;28;20076;-43
2022/05/03 02:35:33;;;;;;;1.80;0.80;;;23.00;40.00;;;;;;4987496;28;20030;-42
2022/05/03 02:38:06;;;;;;;1.48;0.63;;;23.00;39.90;;;;;;4988051;28;20030;-43
2022/05/03 02:40:33;;;;;;;0.90;0.70;;;22.90;39.90;;;;;;4987759;28;20019;-43
2022/05/03 02:42:59;;;;;;;1.48;0.80;;;22.90;40.00;;;;;;4988162;28;20030;-42
2022/05/03 02:45:26;;;;;;;1.30;0.70;;;22.90;40.00;;;;;;4988054;28;20027;-42
2022/05/03 02:48:14;;;;;;;1.50;0.80;;;22.90;40.00;;;;;;4987831;28;20224;-42
2022/05/03 02:50:53;;;;;;;1.15;0.73;;;22.90;39.90;;;;;;4987622;28;20048;-42
2022/05/03 02:53:43;;;;;;;1.05;0.60;;;22.90;39.90;;;;;;4987933;28;20030;-42
2022/05/03 02:56:21;;;;;;;1.35;0.80;;;23.00;39.90;;;;;;4987161;28;20018;-43
2022/05/03 02:59:16;;;;;;;1.50;0.70;;;22.90;39.90;;;;;;4988237;28;20108;-42
2022/05/03 03:01:57;;;;;;;1.52;0.73;;;22.90;40.00;;;;;;4978656;28;20041;-42
2022/05/03 03:04:25;;;;;;;1.23;0.80;;;22.90;40.00;;;;;;4987630;28;20027;-42
2022/05/03 03:06:55;;;;;;;1.17;0.73;;;22.90;40.00;;;;;;4987330;28;20038;-43
2022/05/03 03:09:44;;;;;;;1.27;0.77;;;22.90;40.00;;;;;;4987427;28;20426;-42
2022/05/03 03:12:44;;;;;;;1.65;0.95;;;22.90;40.00;;;;;;4986099;28;20034;-42
2022/05/03 03:15:14;;;;;;;1.30;0.65;;;22.90;40.00;;;;;;4987333;28;20059;-42
2022/05/03 03:17:47;;;;;;;2.38;1.00;;;22.90;40.00;;;;;;4986877;28;20093;-42
2022/05/03 03:20:14;;;;;;;2.33;1.02;;;22.90;40.00;;;;;;4985641;28;20031;-42
2022/05/03 03:22:42;;;;;;;1.80;0.70;;;22.90;40.00;;;;;;4985626;28;20331;-42
2022/05/03 03:25:10;;;;;;;2.00;0.82;;;22.90;40.00;;;;;;4985686;28;20022;-43
2022/05/03 03:27:37;;;;;;;1.38;0.77;;;22.90;40.00;;;;;;4986891;28;20030;-42
2022/05/03 03:30:06;;;;;;;2.05;0.95;;;22.90;40.00;;;;;;4987202;28;20557;-42
2022/05/03 03:32:34;;;;;;;0.95;0.60;;;22.90;40.00;;;;;;4986969;28;20061;-42
2022/05/03 03:35:01;;;;;;;1.67;0.70;;;22.90;40.00;;;;;;4985885;28;20026;-42
2022/05/03 03:37:33;;;;;;;1.42;0.80;;;22.90;40.00;;;;;;4987007;28;20034;-42
2022/05/03 03:39:59;;;;;;;2.00;0.90;;;22.90;40.00;;;;;;4987276;28;20034;-42
2022/05/03 03:42:28;;;;;;;2.13;1.00;;;22.90;40.00;;;;;;4986380;28;20393;-42
2022/05/03 03:45:02;;;;;;;1.48;0.85;;;22.90;40.00;;;;;;4986619;28;20069;-42
2022/05/03 03:47:32;;;;;;;1.98;0.80;;;22.90;40.00;;;;;;4986784;28;20031;-42
2022/05/03 03:49:59;;;;;;;2.03;0.90;;;22.90;40.00;;;;;;4986759;28;20037;-43
2022/05/03 03:52:26;;;;;;;1.30;0.70;;;22.90;40.00;;;;;;4985544;28;20030;-42
2022/05/03 03:54:56;;;;;;;2.28;0.90;;;22.90;40.10;;;;;;4986323;28;20098;-42
2022/05/03 03:57:23;;;;;;;1.83;0.88;;;22.90;40.00;;;;;;4985780;28;20030;-42
2022/05/03 03:59:49;;;;;;;1.52;0.90;;;22.90;40.00;;;;;;4986426;28;20096;-42
2022/05/03 04:02:15;;;;;;;2.30;0.93;;;22.90;40.00;;;;;;4986111;28;20057;-42
2022/05/03 04:04:44;;;;;;;1.85;0.85;;;22.90;40.10;;;;;;4986235;28;20026;-42
2022/05/03 04:07:11;;;;;;;1.63;0.90;;;22.90;40.10;;;;;;4985678;28;20026;-42
2022/05/03 04:09:37;;;;;;;1.20;0.57;;;22.90;40.00;;;;;;4986172;28;20077;-42
2022/05/03 04:12:05;;;;;;;2.08;1.27;;;22.90;40.00;;;;;;4984818;28;20054;-42
2022/05/03 04:14:31;;;;;;;2.30;0.98;;;22.90;40.00;;;;;;4985754;28;20113;-42
2022/05/03 04:16:57;;;;;;;3.53;0.90;;;22.90;40.00;;;;;;4985821;28;20026;-42
2022/05/03 04:19:24;;;;;;;1.60;0.80;;;22.90;40.10;;;;;;4984427;28;20029;-42
2022/05/03 04:21:50;;;;;;;1.50;0.80;;;22.90;40.10;;;;;;4985200;28;20038;-42
2022/05/03 04:24:17;;;;;;;1.88;1.00;;;22.90;40.20;;;;;;4985922;28;20037;-42
2022/05/03 04:26:43;;;;;;;1.20;0.60;;;22.80;40.20;;;;;;4985753;28;20117;-42
2022/05/03 04:29:09;;;;;;;1.75;1.00;;;22.90;40.30;;;;;;4985665;28;20034;-42
2022/05/03 04:31:36;;;;;;;1.23;0.75;;;22.90;40.30;;;;;;4985130;28;20022;-42
2022/05/03 04:34:03;;;;;;;1.80;0.85;;;22.90;40.30;;;;;;4985720;28;20490;-43
2022/05/03 04:36:30;;;;;;;1.52;0.90;;;22.90;40.30;;;;;;4985194;28;20057;-42
2022/05/03 04:38:59;;;;;;;1.58;0.80;;;23.00;40.30;;;;;;4985705;28;20088;-43
2022/05/03 04:41:25;;;;;;;1.33;0.80;;;23.00;40.30;;;;;;4985092;28;20085;-42
2022/05/03 04:43:51;;;;;;;0.95;0.60;;;23.00;40.20;;;;;;4985193;28;20038;-42
2022/05/03 04:46:17;;;;;;;1.67;1.00;;;23.00;40.20;;;;;;4985512;28;20406;-42
2022/05/03 04:48:43;;;;;;;1.85;0.70;;;23.10;40.30;;;;;;4985189;28;20058;-42
2022/05/03 04:51:19;;;;;;;1.63;0.80;;;23.10;40.20;;;;;;4984599;28;20058;-42
2022/05/03 04:53:45;;;;;;;1.70;0.90;;;23.10;40.20;;;;;;4985542;28;20036;-43
2022/05/03 04:56:21;;;;;;;2.50;1.20;;;23.10;40.10;;;;;;4984830;28;20390;-43
2022/05/03 04:58:49;;;;;;;1.88;1.10;;;23.20;40.00;;;;;;4985331;28;20038;-42
2022/05/03 05:01:15;;;;;;;2.35;0.95;;;23.20;40.00;;;;;;4984790;28;20658;-43
2022/05/03 05:03:42;;;;;;;2.00;1.00;;;23.20;40.00;;;;;;4985263;28;20038;-42
2022/05/03 05:06:09;;;;;;;1.25;0.77;;;23.20;39.90;;;;;;4985150;28;20037;-43
2022/05/03 05:08:36;;;;;;;1.35;0.90;;;23.20;39.90;;;;;;4985624;28;20114;-42
2022/05/03 05:11:02;;;;;;;1.65;0.98;;;23.20;39.90;;;;;;4984771;28;20034;-42
2022/05/03 05:13:28;;;;;;;1.42;0.80;;;23.20;39.90;;;;;;4985117;28;20030;-42
2022/05/03 05:15:55;;;;;;;1.42;0.80;;;23.30;40.00;;;;;;4984117;28;20052;-42
2022/05/03 05:18:20;;;;;;;1.92;0.95;;;23.30;39.90;;;;;;4984936;28;20490;-42
2022/05/03 05:20:46;;;;;;;1.75;1.13;;;23.30;39.90;;;;;;4984736;28;20102;-42
2022/05/03 05:23:12;;;;;;;2.45;1.10;;;23.30;39.90;;;;;;4984647;28;20486;-42
2022/05/03 05:25:37;;;;;;;2.03;0.95;;;23.30;39.90;;;;;;4984913;28;20030;-42
2022/05/03 05:28:03;;;;;;;1.55;0.82;;;23.30;39.90;;;;;;4985405;28;20115;-41
2022/05/03 05:30:29;;;;;;;1.33;0.80;;;23.30;39.90;;;;;;4984970;28;20039;-43
2022/05/03 05:32:55;;;;;;;1.38;0.90;;;23.30;39.90;;;;;;4985018;28;20160;-42
2022/05/03 05:35:21;;;;;;;1.48;0.77;;;23.30;40.60;;;;;;4984503;28;20562;-43
2022/05/03 05:37:47;;;;;;;1.52;0.73;;;23.30;39.90;;;;;;4984519;28;20022;-42
2022/05/03 05:40:12;;;;;;;1.13;0.70;;;23.30;39.90;;;;;;4985070;28;20137;-43
2022/05/03 05:42:38;;;;;;;1.45;0.80;;;23.30;39.90;;;;;;4984960;28;20035;-43
2022/05/03 05:45:05;;;;;;;1.13;0.70;;;23.30;39.80;;;;;;4988957;28;20045;-42
2022/05/03 05:47:30;;;;;;;1.10;0.70;;;23.30;39.80;;;;;;4988710;28;20034;-42
2022/05/03 05:49:56;;;;;;;1.55;0.80;;;23.30;39.80;;;;;;4988187;28;20555;-42
2022/05/03 05:55:07;;;;;;;1.23;0.80;;;23.30;39.80;;;;;;4988260;28;20027;-42
2022/05/03 05:57:32;;;;;;;1.85;0.90;;;23.30;39.80;;;;;;4988018;28;20335;-42
2022/05/03 05:59:58;;;;;;;1.20;0.70;;;23.30;39.80;;;;;;4988724;28;20657;-42
2022/05/03 06:02:23;;;;;;;1.40;0.90;;;23.30;39.80;;;;;;4987748;28;20033;-42
2022/05/03 06:04:49;;;;;;;1.35;0.80;;;23.30;39.80;;;;;;4988505;28;20046;-42
2022/05/03 06:07:15;;;;;;;1.95;0.90;;;23.30;39.70;;;;;;4988173;28;20422;-42
2022/05/03 06:09:40;;;;;;;1.60;0.90;;;23.30;39.70;;;;;;4987286;28;20053;-42
2022/05/03 06:12:07;;;;;;;1.55;0.90;;;23.40;39.70;;;;;;4987869;28;20165;-42
2022/05/03 06:14:32;;;;;;;1.20;0.60;;;23.40;39.70;;;;;;4987370;28;20128;-42
2022/05/03 06:16:58;;;;;;;1.30;0.70;;;23.40;39.70;;;;;;4988203;28;20081;-42
2022/05/03 06:19:24;;;;;;;1.67;0.80;;;23.40;39.70;;;;;;4987788;28;20731;-42
2022/05/03 06:21:50;;;;;;;1.42;0.80;;;23.40;39.70;;;;;;4987828;28;20038;-43
2022/05/03 06:24:16;;;;;;;1.77;1.00;;;23.40;39.70;;;;;;4987452;28;20394;-42
2022/05/03 06:26:42;;;;;;;2.28;1.20;;;23.40;39.70;;;;;;4987881;28;20022;-42
2022/05/03 06:29:09;;;;;;;1.17;0.68;;;23.40;39.70;;;;;;4987721;28;20030;-43
2022/05/03 06:31:35;;;;;;;1.42;1.02;;;23.40;39.70;;;;;;4987545;28;20053;-42
2022/05/03 06:34:01;;;;;;;1.15;0.65;;;23.40;39.70;;;;;;4987952;28;20577;-42
2022/05/03 06:36:27;;;;;;;2.50;1.00;;;23.40;39.70;;;;;;4987337;28;20032;-42
2022/05/03 06:38:53;;;;;;;1.70;0.93;;;23.40;39.70;;;;;;4987414;28;20102;-43
2022/05/03 06:41:19;;;;;;;2.25;1.00;;;23.40;39.70;;;;;;4987363;28;20037;-42
2022/05/03 06:43:45;;;;;;;1.63;0.80;;;23.40;39.70;;;;;;4987277;28;20039;-42
2022/05/03 06:46:11;;;;;;;1.77;0.88;;;23.40;39.70;;;;;;4987904;28;20080;-42
2022/05/03 06:48:37;;;;;;;1.35;0.90;;;23.40;39.70;;;;;;4987299;28;20034;-42
2022/05/03 06:51:05;;;;;;;1.90;1.10;;;23.40;39.70;;;;;;4986954;28;20136;-43
2022/05/03 06:53:31;;;;;;;1.65;0.90;;;23.40;39.70;;;;;;4987481;28;20022;-42
2022/05/03 06:55:57;;;;;;;1.58;1.00;;;23.40;39.70;;;;;;4987419;28;20025;-42
2022/05/03 06:58:22;;;;;;;2.35;1.17;;;23.40;39.70;;;;;;4987108;28;20033;-42
2022/05/03 07:00:48;;;;;;;1.55;0.73;;;23.40;39.70;;;;;;4986914;28;20440;-43
2022/05/03 07:03:13;;;;;;;2.00;1.05;;;23.40;39.70;;;;;;4987219;28;20510;-42
2022/05/03 07:05:40;;;;;;;2.15;0.90;;;23.40;39.70;;;;;;4986292;28;20038;-42
2022/05/03 07:08:08;;;;;;;1.65;0.90;;;23.40;39.70;;;;;;4986729;28;20026;-42
2022/05/03 07:10:34;;;;;;;2.13;1.10;;;23.40;39.70;;;;;;4986795;28;20035;-42
2022/05/03 07:13:00;;;;;;;2.95;1.20;;;23.40;39.70;;;;;;4987007;28;20194;-42
2022/05/03 07:15:27;;;;;;;1.88;0.98;;;23.40;39.70;;;;;;4986283;28;20117;-43
2022/05/03 07:23:23;;;;;;;2.00;0.93;;;23.40;39.70;;;;;;4986951;28;20037;-42
2022/05/03 07:25:50;;;;;;;2.17;1.20;;;23.40;39.70;;;;;;4986966;28;20034;-43
2022/05/03 07:28:16;;;;;;;2.00;1.15;;;23.40;39.70;;;;;;4986688;28;20037;-42
2022/05/03 07:30:43;;;;;;;1.98;1.02;;;23.40;39.70;;;;;;4986311;28;20038;-42
2022/05/03 07:33:09;;;;;;;2.42;0.98;;;23.40;39.70;;;;;;4985816;28;20026;-43
2022/05/03 07:35:34;;;;;;;2.05;1.10;;;23.40;39.70;;;;;;4985307;28;20030;-43
2022/05/03 07:38:00;;;;;;;2.30;1.00;;;23.40;39.70;;;;;;4986680;28;20037;-43
2022/05/03 07:40:28;;;;;;;2.53;1.30;;;23.40;39.70;;;;;;4986266;28;20030;-42
2022/05/03 07:42:53;;;;;;;2.78;1.40;;;23.40;39.70;;;;;;4986216;28;20089;-42
2022/05/03 07:45:19;;;;;;;2.60;1.10;;;23.40;40.30;;;;;;4985838;28;20030;-43
2022/05/03 07:47:45;;;;;;;1.85;1.00;;;23.40;39.60;;;;;;4986351;28;20040;-42
2022/05/03 07:50:11;;;;;;;2.40;1.10;;;23.40;39.70;;;;;;4985892;28;20034;-42
2022/05/03 07:52:37;;;;;;;2.05;1.08;;;23.40;39.70;;;;;;4984951;28;20030;-42
2022/05/03 07:55:05;;;;;;;2.45;1.40;;;23.40;39.70;;;;;;4985936;28;20084;-42
2022/05/03 07:57:31;;;;;;;2.28;1.23;;;23.40;39.70;;;;;;4985376;28;20014;-42
2022/05/03 07:59:57;;;;;;;2.47;1.33;;;23.40;39.70;;;;;;4986238;28;20083;-43
2022/05/03 08:02:24;;;;;;;2.08;1.02;;;23.40;39.70;;;;;;4986327;28;20263;-42
2022/05/03 08:04:54;;;;;;;1.88;1.02;;;23.40;39.70;;;;;;4986228;28;20030;-43
2022/05/03 08:07:20;;;;;;;2.22;1.10;;;23.40;39.70;;;;;;4985368;28;20065;-42
2022/05/03 08:09:47;;;;;;;2.10;1.20;;;23.40;39.70;;;;;;4983208;28;20058;-43
2022/05/03 08:12:13;;;;;;;2.15;1.30;;;23.40;39.60;;;;;;4984793;28;20041;-42
2022/05/03 08:14:39;;;;;;;2.60;1.25;;;23.40;39.70;;;;;;4983692;28;20083;-42
2022/05/03 08:17:05;;;;;;;2.47;1.17;;;23.40;39.70;;;;;;4982969;28;20069;-42
2022/05/03 08:19:31;;;;;;;2.03;1.15;;;23.40;39.70;;;;;;4984278;28;20034;-44
2022/05/03 08:21:57;;;;;;;2.33;1.30;;;23.40;39.70;;;;;;4984807;28;20454;-45
2022/05/03 08:24:24;;;;;;;2.03;1.20;;;23.40;39.70;;;;;;4985135;28;20038;-44
2022/05/03 08:26:49;;;;;;;2.83;1.20;;;23.40;40.00;;;;;;4983950;28;20039;-44
2022/05/03 08:29:15;;;;;;;3.20;1.30;;;23.40;40.60;;;;;;4985631;28;20030;-44
2022/05/03 08:31:41;;;;;;;2.33;1.35;;;23.40;40.40;;;;;;4984828;28;20050;-44
2022/05/03 08:34:08;;;;;;;3.55;1.23;;;23.40;40.40;;;;;;4980273;28;20022;-44
2022/05/03 08:36:34;;;;;;;3.22;1.20;;;23.40;40.50;;;;;;4980547;28;20031;-44
2022/05/03 08:42:06;;;;;;;2.53;1.10;;;23.50;40.40;;;;;;4983794;28;20042;-44
2022/05/03 08:44:33;;;;;;;2.25;1.00;;;23.40;40.30;;;;;;4984061;28;20109;-44
2022/05/03 08:47:00;;;;;;;1.70;1.00;;;23.40;40.20;;;;;;4984118;28;20026;-45
2022/05/03 08:49:42;;;;;;;2.20;1.13;;;23.50;40.20;;;;;;4984691;28;20031;-44
2022/05/03 08:52:09;;;;;;;2.28;1.17;;;23.40;40.10;;;;;;4984724;28;20030;-44
2022/05/03 08:54:37;;;;;;;2.35;1.05;;;23.40;40.10;;;;;;4985465;28;20474;-44
2022/05/03 08:57:07;;;;;;;2.42;1.33;;;23.50;40.10;;;;;;4984519;28;20042;-45
2022/05/03 08:59:34;;;;;;;2.05;1.00;;;23.50;40.10;;;;;;4984668;28;20027;-44
2022/05/03 09:02:00;;;;;;;1.90;0.90;;;23.40;40.00;;;;;;4984800;28;20072;-44
2022/05/03 09:04:26;;;;;;;2.20;1.02;;;23.40;40.00;;;;;;4985009;28;20065;-44
2022/05/03 09:06:52;;;;;;;3.03;1.52;;;23.50;40.00;;;;;;4983733;28;20153;-44
2022/05/03 09:09:20;;;;;;;1.95;1.13;;;23.50;40.10;;;;;;4985337;28;20038;-44
2022/05/03 09:11:48;;;;;;;1.77;0.85;;;23.50;40.00;;;;;;4984670;28;20037;-44
2022/05/03 09:14:35;;;;;;;2.15;1.17;;;23.50;40.10;;;;;;4984241;28;20360;-44
2022/05/03 09:17:02;;;;;;;2.15;1.15;;;23.40;40.00;;;;;;4985231;28;20537;-44
2022/05/03 09:19:28;;;;;;;2.85;1.20;;;23.50;40.00;;;;;;4987999;28;20090;-43
2022/05/03 09:25:03;;;;;;;3.05;1.35;;;23.50;40.00;;;;;;4988768;28;20069;-44
2022/05/03 09:27:30;;;;;;;2.70;1.20;;;23.50;40.00;;;;;;4988779;28;20031;-44
2022/05/03 09:30:06;;;;;;;1.95;1.10;;;23.40;40.00;;;;;;4988630;28;20383;-43
2022/05/03 09:32:40;;;;;;;2.72;1.35;;;23.40;39.90;;;;;;4988620;28;20069;-44
2022/05/03 09:35:23;;;;;;;2.65;1.20;;;23.50;40.00;;;;;;4987926;28;20027;-44
2022/05/03 09:37:48;;;;;;;2.45;1.15;;;23.40;39.90;;;;;;4988201;28;20434;-44
2022/05/03 09:40:16;;;;;;;2.47;1.23;;;23.40;39.90;;;;;;4988455;28;20026;-44
2022/05/03 09:42:54;;;;;;;1.80;0.93;;;23.50;40.00;;;;;;4988558;28;20034;-43
2022/05/03 09:45:25;;;;;;;2.10;1.10;;;23.50;40.00;;;;;;4988166;28;20049;-44
2022/05/03 09:47:53;;;;;;;2.72;1.35;;;23.50;40.00;;;;;;4988124;28;20084;-44
2022/05/03 09:50:40;;;;;;;2.45;1.02;;;23.40;40.00;;;;;;4988891;28;20347;-44
2022/05/03 09:53:13;;;;;;;2.30;1.10;;;23.40;40.00;;;;;;4988476;28;20466;-45
2022/05/03 09:55:40;;;;;;;2.80;1.10;;;23.50;40.20;;;;;;4988758;28;20029;-44
2022/05/03 09:58:09;;;;;;;2.00;1.00;;;23.40;40.10;;;;;;4988528;28;20101;-45
2022/05/03 10:00:36;;;;;;;2.40;1.10;;;23.50;40.20;;;;;;4988806;28;20230;-44
2022/05/03 10:03:04;;;;;;;1.48;0.80;;;23.50;40.10;;;;;;4988126;28;20038;-45
2022/05/03 10:05:30;;;;;;;2.67;1.25;;;23.40;40.00;;;;;;4988107;28;20498;-45
2022/05/03 10:07:56;;;;;;;2.25;1.10;;;23.50;40.10;;;;;;4988047;28;20049;-45
2022/05/03 10:10:24;;;;;;;2.10;1.05;;;23.50;40.00;;;;;;4986607;28;20410;-45
2022/05/03 10:12:50;;;;;;;2.22;1.05;;;23.40;39.90;;;;;;4988760;28;20026;-45
2022/05/03 10:21:31;;;;;;;1.83;0.93;;;23.40;40.00;;;;;;4987552;28;20030;-43
2022/05/03 10:24:02;;;;;;;3.28;0.93;;;23.50;40.00;;;;;;4987963;28;20097;-44
2022/05/03 10:27:03;;;;;;;1.50;0.80;;;23.50;40.10;;;;;;4987932;28;20113;-43
2022/05/03 10:29:36;;;;;;;2.00;1.00;;;23.50;40.10;;;;;;4987777;28;20030;-43
2022/05/03 10:32:06;;;;;;;2.33;1.13;;;23.50;40.10;;;;;;4987712;28;20054;-44
2022/05/03 10:34:45;;;;;;;2.58;1.10;;;23.50;40.10;;;;;;4987552;28;20118;-43
2022/05/03 10:37:13;;;;;;;2.15;0.93;;;23.50;40.10;;;;;;4987264;28;20514;-43
2022/05/03 10:39:48;;;;;;;1.63;0.80;;;23.50;40.10;;;;;;4988040;28;20030;-44
2022/05/03 10:42:15;;;;;;;2.33;1.35;;;23.50;40.10;;;;;;4987528;28;20054;-44
2022/05/03 10:44:53;;;;;;;1.50;0.90;;;23.50;40.10;;;;;;4987515;28;20031;-44
2022/05/03 10:47:53;;;;;;;1.88;1.10;;;23.50;40.10;;;;;;4987563;28;20148;-44
2022/05/03 10:50:28;;;;;;;2.03;1.10;;;23.50;40.10;;;;;;4987127;28;20038;-44
2022/05/03 10:53:01;;;;;;;2.03;1.00;;;23.50;40.10;;;;;;4987559;28;20593;-44
2022/05/03 10:55:38;;;;;;;1.80;1.00;;;23.50;40.20;;;;;;4987340;28;20097;-43
2022/05/03 10:58:25;;;;;;;2.35;1.25;;;23.50;40.10;;;;;;4986534;28;20054;-43
2022/05/03 11:01:10;;;;;;;2.17;1.10;;;23.50;40.10;;;;;;4985494;28;20117;-44
2022/05/03 11:03:37;;;;;;;1.67;0.90;;;23.50;40.10;;;;;;4986370;28;20058;-43
2022/05/03 11:06:18;;;;;;;1.63;0.90;;;23.50;40.10;;;;;;4986337;28;20398;-44
2022/05/03 11:11:40;;;;;;;1.63;0.93;;;23.50;40.10;;;;;;4985949;28;20030;-43
2022/05/03 11:14:28;;;;;;;2.28;1.02;;;23.50;40.10;;;;;;4986104;28;20456;-44
2022/05/03 11:17:03;;;;;;;1.75;0.95;;;23.50;40.10;;;;;;4967556;28;20109;-43
2022/05/03 11:19:30;;;;;;;1.73;0.90;;;23.50;40.10;;;;;;4967708;28;20026;-44
2022/05/03 11:21:58;;;;;;;1.50;0.90;;;23.50;40.10;;;;;;4967290;28;20466;-43
2022/05/03 11:24:30;;;;;;;2.03;1.08;;;23.50;40.10;;;;;;4967440;28;20031;-44
2022/05/03 11:27:05;;;;;;;1.63;0.70;;;23.50;40.10;;;;;;4974093;28;20034;-44
2022/05/03 11:29:38;;;;;;;1.83;0.82;;;23.50;40.10;;;;;;4986870;28;20026;-43
2022/05/03 11:32:08;;;;;;;1.55;0.88;;;23.50;40.10;;;;;;4985042;28;20128;-43
2022/05/03 11:34:35;;;;;;;1.60;0.90;;;23.50;40.20;;;;;;4986485;28;20023;-43
2022/05/03 11:37:04;;;;;;;1.20;0.80;;;23.60;40.20;;;;;;4986718;28;20026;-43
2022/05/03 11:39:30;;;;;;;1.98;0.95;;;23.60;40.10;;;;;;4986403;28;20022;-44
2022/05/03 11:41:57;;;;;;;2.22;1.05;;;23.50;40.10;;;;;;4985120;28;20026;-43
2022/05/03 11:44:23;;;;;;;1.95;0.93;;;23.60;40.10;;;;;;4986887;28;20041;-44
2022/05/03 11:46:49;;;;;;;2.53;0.93;;;23.60;40.10;;;;;;4985800;28;20030;-44
2022/05/03 11:49:16;;;;;;;1.83;1.10;;;23.60;40.30;;;;;;4986033;28;20030;-44
2022/05/03 11:57:33;;;;;;;1.52;0.77;;;23.70;40.40;;;;;;4985942;28;20117;-43
2022/05/03 12:00:00;;;;;;;1.20;0.70;;;23.70;40.50;;;;;;4986188;28;20054;-43
2022/05/03 12:02:28;;;;;;;1.10;0.70;;;23.70;40.50;;;;;;4985211;28;20085;-43
2022/05/03 12:05:12;;;;;;;1.40;0.85;;;23.70;40.40;;;;;;4986080;28;20026;-44
2022/05/03 12:07:46;;;;;;;1.38;0.70;;;23.70;40.40;;;;;;4985974;28;20053;-44
2022/05/03 12:10:24;;;;;;;2.17;0.95;;;23.70;40.40;;;;;;4984206;28;20026;-44
2022/05/03 12:13:15;;;;;;;1.50;0.80;;;23.80;40.40;;;;;;4985411;28;20034;-43
2022/05/03 12:16:06;;;;;;;1.50;0.80;;;23.80;40.40;;;;;;4985522;28;20600;-44
2022/05/03 12:18:42;;;;;;;1.30;0.70;;;23.80;40.30;;;;;;4984790;28;20026;-44
2022/05/03 12:21:19;;;;;;;1.73;1.00;;;23.80;40.30;;;;;;4985587;28;20510;-44
2022/05/03 12:23:49;;;;;;;1.55;0.80;;;23.80;40.20;;;;;;4985904;28;20057;-44
2022/05/03 12:26:17;;;;;;;2.03;0.80;;;23.80;40.10;;;;;;4985327;28;20037;-44
2022/05/03 12:28:52;;;;;;;1.88;1.00;;;23.80;40.10;;;;;;4985127;28;20610;-44
2022/05/03 12:31:20;;;;;;;1.27;0.73;;;23.80;40.00;;;;;;4985922;28;20026;-43
2022/05/03 12:33:53;;;;;;;1.83;0.90;;;23.80;40.00;;;;;;4985510;28;20023;-44
2022/05/03 12:36:34;;;;;;;;;;;23.80;40.10;;;;;;4985966;28;20029;-43
2022/05/03 12:39:18;;;;;;;1.63;0.90;;;23.90;40.20;;;;;;4984862;28;19917;-44
2022/05/03 12:41:53;;;;;;;1.17;0.65;;;23.90;40.20;;;;;;4984953;28;20026;-44
2022/05/03 12:44:21;;;;;;;1.30;0.70;;;23.90;40.20;;;;;;4985570;28;20106;-43
2022/05/03 12:46:50;;;;;;;1.55;0.93;;;23.90;40.10;;;;;;4985246;28;20130;-45
2022/05/03 12:49:17;;;;;;;1.10;0.70;;;23.90;40.10;;;;;;4985299;28;20034;-44
2022/05/03 12:51:45;;;;;;;1.60;0.88;;;23.90;40.10;;;;;;4984606;28;20524;-43
2022/05/03 12:54:11;;;;;;;1.77;0.80;;;23.90;40.00;;;;;;4985299;28;20030;-43
2022/05/03 12:59:23;;;;;;;1.48;0.80;;;23.90;40.10;;;;;;4985545;28;20110;-44
2022/05/03 13:01:50;;;;;;;2.13;1.00;;;24.00;40.10;;;;;;4984738;28;20265;-44
2022/05/03 13:04:17;;;;;;;1.25;0.77;;;24.00;40.20;;;;;;4985944;28;20031;-43
2022/05/03 13:06:44;;;;;;;2.30;1.13;;;24.00;40.20;;;;;;4985430;28;20201;-44
2022/05/03 13:09:10;;;;;;;2.25;1.10;;;24.00;40.10;;;;;;4985468;28;20279;-44
2022/05/03 13:11:38;;;;;;;2.05;0.90;;;24.00;40.10;;;;;;4984689;28;20030;-44
2022/05/03 13:14:08;;;;;;;1.60;0.90;;;24.00;40.10;;;;;;4984889;28;20034;-44
2022/05/03 13:16:34;;;;;;;1.90;0.80;;;24.00;40.10;;;;;;4984629;28;20097;-44
2022/05/03 13:19:00;;;;;;;2.15;1.10;;;24.00;40.00;;;;;;4984279;28;20034;-44
2022/05/03 13:21:26;;;;;;;1.45;0.80;;;24.00;40.00;;;;;;4983790;28;20470;-44
2022/05/03 13:23:53;;;;;;;1.90;0.90;;;24.10;40.00;;;;;;4984203;28;20045;-44
2022/05/03 13:26:18;;;;;;;1.77;0.90;;;24.10;40.00;;;;;;4983620;28;20463;-44
2022/05/03 13:28:45;;;;;;;1.50;0.85;;;24.10;40.00;;;;;;4983884;28;20066;-44
2022/05/03 13:31:13;;;;;;;1.48;0.88;;;24.10;40.00;;;;;;4984033;28;20026;-43
2022/05/03 13:33:39;;;;;;;2.22;0.90;;;24.20;39.90;;;;;;4984229;28;20026;-44
2022/05/03 13:41:33;;;;;;;1.65;0.82;;;24.20;39.80;;;;;;4983377;28;20050;-43
2022/05/03 13:43:59;;;;;;;1.33;0.80;;;24.20;39.80;;;;;;4983803;28;20434;-44
2022/05/03 13:46:25;;;;;;;1.42;0.70;;;24.30;39.80;;;;;;4983695;28;20023;-44
2022/05/03 13:48:50;;;;;;;1.40;0.80;;;24.30;39.70;;;;;;4984655;28;20061;-44
2022/05/03 13:51:17;;;;;;;1.30;0.70;;;24.30;39.70;;;;;;4982752;28;20415;-44